createdAt,value
2022-11-20T00:00:05.075Z,68.80
2022-11-20T00:00:15.066Z,66.30
2022-11-20T00:00:25.108Z,58.00
2022-11-20T00:00:35.077Z,61.70
2022-11-20T00:00:45.047Z,64.20
2022-11-20T00:00:55.052Z,62.20
2022-11-20T00:01:05.047Z,58.90
2022-11-20T00:01:15.056Z,67.90
2022-11-20T00:01:25.057Z,73.70
2022-11-20T00:01:35.207Z,67.50
2022-11-20T00:01:45.092Z,70.10
2022-11-20T00:01:55.815Z,73.20
2022-11-20T00:02:05.101Z,68.20
2022-11-20T00:02:15.094Z,62.40
2022-11-20T00:02:25.172Z,52.00
2022-11-20T00:02:35.056Z,56.00
2022-11-20T00:02:45.044Z,56.50
2022-11-20T00:02:55.065Z,62.60
2022-11-20T00:03:05.059Z,62.70
2022-11-20T00:03:15.044Z,64.80
2022-11-20T00:03:25.065Z,58.70
2022-11-20T00:03:35.089Z,61.50
2022-11-20T00:03:45.050Z,60.90
2022-11-20T00:03:55.068Z,58.20
2022-11-20T00:04:05.171Z,60.40
2022-11-20T00:04:15.035Z,57.90
2022-11-20T00:04:25.036Z,64.50
2022-11-20T00:04:35.042Z,59.60
2022-11-20T00:04:45.048Z,60.30
2022-11-20T00:04:55.041Z,61.20
2022-11-20T00:05:05.032Z,61.70
2022-11-20T00:05:15.041Z,57.50
2022-11-20T00:05:25.032Z,55.50
2022-11-20T00:05:35.116Z,55.40
2022-11-20T00:05:45.050Z,58.20
2022-11-20T00:05:55.759Z,57.00
2022-11-20T00:06:05.740Z,60.80
2022-11-20T00:06:15.720Z,62.50
2022-11-20T00:06:25.040Z,67.50
2022-11-20T00:06:35.027Z,65.30
2022-11-20T00:06:45.047Z,64.40
2022-11-20T00:06:55.742Z,58.20
2022-11-20T00:07:05.162Z,55.80
2022-11-20T00:07:15.101Z,54.50
2022-11-20T00:07:25.028Z,66.10
2022-11-20T00:07:35.079Z,61.40
2022-11-20T00:07:45.063Z,65.80
2022-11-20T00:07:55.052Z,48.60
2022-11-20T00:08:05.746Z,59.90
2022-11-20T00:08:15.093Z,54.60
2022-11-20T00:08:25.025Z,64.50
2022-11-20T00:08:35.023Z,62.70
2022-11-20T00:08:45.024Z,61.60
2022-11-20T00:08:55.019Z,61.70
2022-11-20T00:09:05.035Z,51.70
2022-11-20T00:09:15.040Z,61.30
2022-11-20T00:09:25.016Z,63.20
2022-11-20T00:09:35.037Z,70.10
2022-11-20T00:09:45.036Z,60.50
2022-11-20T00:09:55.012Z,61.40
2022-11-20T00:10:05.038Z,65.60
2022-11-20T00:10:15.746Z,66.40
2022-11-20T00:10:25.743Z,64.40
2022-11-20T00:10:35.010Z,63.10
2022-11-20T00:10:45.079Z,71.50
2022-11-20T00:10:55.061Z,72.20
2022-11-20T00:11:05.026Z,72.10
2022-11-20T00:11:16.397Z,67.30
2022-11-20T00:11:25.777Z,64.90
2022-11-20T00:11:35.021Z,66.70
2022-11-20T00:11:45.004Z,69.20
2022-11-20T00:11:55.026Z,71.60
2022-11-20T00:12:05.057Z,73.60
2022-11-20T00:12:15.032Z,68.30
2022-11-20T00:12:25.059Z,68.10
2022-11-20T00:12:35.017Z,60.50
2022-11-20T00:12:45.010Z,59.60
2022-11-20T00:12:55.091Z,65.10
2022-11-20T00:13:05.007Z,69.20
2022-11-20T00:13:15.746Z,70.70
2022-11-20T00:13:25.006Z,63.00
2022-11-20T00:13:35.013Z,61.00
2022-11-20T00:13:45.116Z,67.70
2022-11-20T00:13:55.032Z,76.60
2022-11-20T00:14:05.036Z,76.80
2022-11-20T00:14:15.001Z,69.70
2022-11-20T00:14:25.072Z,56.70
2022-11-20T00:14:35.013Z,59.90
2022-11-20T00:14:45.003Z,63.40
2022-11-20T00:14:55.033Z,71.30
2022-11-20T00:15:04.995Z,68.30
2022-11-20T00:15:15.000Z,66.10
2022-11-20T00:15:25.038Z,62.50
2022-11-20T00:15:34.996Z,67.00
2022-11-20T00:15:45.012Z,67.30
2022-11-20T00:15:55.050Z,72.80
2022-11-20T00:16:04.995Z,71.30
2022-11-20T00:16:15.778Z,73.80
2022-11-20T00:16:25.764Z,71.50
2022-11-20T00:16:35.086Z,69.00
2022-11-20T00:16:45.009Z,66.00
2022-11-20T00:16:54.997Z,67.60
2022-11-20T00:17:05.088Z,65.40
2022-11-20T00:17:15.011Z,65.80
2022-11-20T00:17:25.015Z,61.00
2022-11-20T00:17:34.985Z,61.50
2022-11-20T00:17:45.028Z,73.20
2022-11-20T00:17:55.073Z,73.60
2022-11-20T00:18:05.006Z,80.30
2022-11-20T00:18:15.014Z,72.00
2022-11-20T00:18:24.983Z,64.80
2022-11-20T00:18:35.769Z,61.00
2022-11-20T00:18:45.030Z,60.20
2022-11-20T00:18:54.979Z,71.30
2022-11-20T00:19:04.998Z,75.70
2022-11-20T00:19:14.992Z,82.90
2022-11-20T00:19:24.981Z,77.00
2022-11-20T00:19:35.012Z,67.10
2022-11-20T00:19:45.044Z,65.90
2022-11-20T00:19:54.991Z,71.00
2022-11-20T00:20:05.055Z,79.80
2022-11-20T00:20:14.982Z,76.70
2022-11-20T00:20:25.791Z,72.60
2022-11-20T00:20:35.023Z,66.80
2022-11-20T00:20:45.063Z,65.60
2022-11-20T00:20:54.985Z,68.30
2022-11-20T00:21:05.039Z,68.50
2022-11-20T00:21:14.985Z,71.00
2022-11-20T00:21:24.997Z,71.30
2022-11-20T00:21:34.980Z,79.00
2022-11-20T00:21:44.970Z,76.60
2022-11-20T00:21:54.997Z,77.50
2022-11-20T00:22:05.052Z,66.60
2022-11-20T00:22:14.967Z,65.30
2022-11-20T00:22:25.100Z,62.10
2022-11-20T00:22:35.749Z,66.40
2022-11-20T00:22:45.748Z,71.90
2022-11-20T00:22:55.005Z,67.20
2022-11-20T00:23:04.969Z,59.70
2022-11-20T00:23:14.971Z,59.50
2022-11-20T00:23:25.005Z,63.40
2022-11-20T00:23:35.096Z,73.90
2022-11-20T00:23:45.037Z,76.00
2022-11-20T00:23:55.369Z,77.10
2022-11-20T00:24:04.960Z,75.40
2022-11-20T00:24:14.968Z,68.00
2022-11-20T00:24:25.002Z,69.20
2022-11-20T00:24:38.957Z,64.70
2022-11-20T00:24:45.766Z,63.70
2022-11-20T00:24:55.061Z,71.20
2022-11-20T00:25:04.966Z,77.40
2022-11-20T00:25:14.971Z,79.20
2022-11-20T00:25:24.967Z,71.80
2022-11-20T00:25:35.053Z,68.60
2022-11-20T00:25:44.968Z,76.80
2022-11-20T00:25:54.971Z,75.60
2022-11-20T00:26:05.009Z,81.10
2022-11-20T00:26:15.023Z,69.70
2022-11-20T00:26:24.954Z,70.50
2022-11-20T00:26:35.771Z,70.00
2022-11-20T00:26:44.984Z,77.00
2022-11-20T00:26:55.116Z,77.10
2022-11-20T00:27:04.971Z,74.60
2022-11-20T00:27:14.972Z,76.50
2022-11-20T00:27:24.975Z,75.90
2022-11-20T00:27:34.975Z,74.70
2022-11-20T00:27:45.752Z,67.30
2022-11-20T00:27:54.946Z,64.30
2022-11-20T00:28:04.980Z,61.50
2022-11-20T00:28:15.748Z,63.90
2022-11-20T00:28:25.039Z,66.10
2022-11-20T00:28:34.964Z,72.30
2022-11-20T00:28:44.989Z,71.50
2022-11-20T00:28:54.985Z,74.20
2022-11-20T00:29:05.051Z,72.30
2022-11-20T00:29:14.944Z,72.70
2022-11-20T00:29:24.977Z,70.40
2022-11-20T00:29:34.979Z,68.10
2022-11-20T00:29:44.956Z,71.90
2022-11-20T00:29:54.955Z,69.80
2022-11-20T00:30:04.979Z,72.40
2022-11-20T00:30:15.411Z,71.10
2022-11-20T00:30:24.942Z,77.90
2022-11-20T00:30:34.980Z,74.20
2022-11-20T00:30:44.939Z,75.60
2022-11-20T00:30:54.950Z,70.90
2022-11-20T00:31:05.027Z,72.30
2022-11-20T00:31:14.934Z,72.20
2022-11-20T00:31:25.136Z,72.30
2022-11-20T00:31:34.934Z,78.00
2022-11-20T00:31:45.115Z,74.50
2022-11-20T00:31:54.971Z,79.00
2022-11-20T00:32:04.978Z,75.20
2022-11-20T00:32:14.936Z,74.80
2022-11-20T00:32:24.958Z,65.90
2022-11-20T00:32:34.934Z,64.80
2022-11-20T00:32:44.933Z,72.50
2022-11-20T00:32:54.954Z,77.20
2022-11-20T00:33:05.745Z,76.70
2022-11-20T00:33:15.072Z,76.60
2022-11-20T00:33:24.930Z,84.20
2022-11-20T00:33:35.015Z,84.50
2022-11-20T00:33:44.955Z,78.00
2022-11-20T00:33:54.928Z,70.20
2022-11-20T00:34:04.956Z,69.20
2022-11-20T00:34:14.924Z,72.90
2022-11-20T00:34:24.952Z,75.80
2022-11-20T00:34:34.927Z,74.10
2022-11-20T00:34:44.941Z,74.20
2022-11-20T00:34:55.004Z,75.70
2022-11-20T00:35:04.934Z,74.80
2022-11-20T00:35:15.028Z,73.40
2022-11-20T00:35:24.976Z,72.40
2022-11-20T00:35:34.921Z,83.80
2022-11-20T00:35:44.960Z,85.80
2022-11-20T00:35:54.935Z,84.80
2022-11-20T00:36:05.749Z,79.40
2022-11-20T00:36:14.942Z,74.10
2022-11-20T00:36:24.941Z,71.80
2022-11-20T00:36:34.963Z,76.60
2022-11-20T00:36:44.919Z,76.90
2022-11-20T00:36:54.920Z,76.60
2022-11-20T00:37:04.925Z,63.00
2022-11-20T00:37:15.837Z,66.50
2022-11-20T00:37:25.143Z,71.60
2022-11-20T00:37:34.928Z,74.50
2022-11-20T00:37:44.976Z,67.40
2022-11-20T00:37:54.915Z,65.40
2022-11-20T00:38:04.936Z,75.40
2022-11-20T00:38:14.943Z,86.00
2022-11-20T00:38:24.919Z,84.70
2022-11-20T00:38:34.961Z,79.60
2022-11-20T00:38:44.949Z,66.80
2022-11-20T00:38:54.936Z,68.60
2022-11-20T00:39:04.987Z,73.00
2022-11-20T00:39:14.957Z,85.80
2022-11-20T00:39:25.753Z,81.10
2022-11-20T00:39:34.943Z,74.20
2022-11-20T00:39:44.912Z,65.80
2022-11-20T00:39:54.909Z,65.10
2022-11-20T00:40:04.956Z,68.40
2022-11-20T00:40:14.930Z,73.60
2022-11-20T00:40:24.915Z,78.60
2022-11-20T00:40:34.931Z,75.30
2022-11-20T00:40:44.911Z,75.40
2022-11-20T00:40:55.744Z,67.40
2022-11-20T00:41:04.987Z,68.30
2022-11-20T00:41:14.921Z,63.80
2022-11-20T00:41:25.748Z,72.90
2022-11-20T00:41:34.911Z,76.00
2022-11-20T00:41:44.989Z,77.10
2022-11-20T00:41:54.921Z,77.30
2022-11-20T00:42:04.914Z,73.40
2022-11-20T00:42:14.902Z,76.50
2022-11-20T00:42:24.920Z,77.70
2022-11-20T00:42:34.905Z,84.40
2022-11-20T00:42:44.895Z,82.40
2022-11-20T00:42:54.916Z,83.10
2022-11-20T00:43:04.914Z,74.80
2022-11-20T00:43:14.922Z,78.40
2022-11-20T00:43:24.912Z,77.50
2022-11-20T00:43:34.894Z,83.60
2022-11-20T00:43:44.930Z,83.20
2022-11-20T00:43:54.890Z,79.20
2022-11-20T00:44:05.750Z,74.20
2022-11-20T00:44:14.916Z,71.70
2022-11-20T00:44:24.965Z,67.50
2022-11-20T00:44:34.898Z,68.90
2022-11-20T00:44:44.910Z,63.30
2022-11-20T00:44:55.043Z,65.30
2022-11-20T00:45:04.887Z,63.60
2022-11-20T00:45:14.893Z,68.60
2022-11-20T00:45:25.748Z,70.00
2022-11-20T00:45:35.758Z,76.60
2022-11-20T00:45:44.897Z,81.50
2022-11-20T00:45:54.962Z,79.90
2022-11-20T00:46:04.904Z,72.50
2022-11-20T00:46:14.889Z,69.10
2022-11-20T00:46:24.887Z,73.40
2022-11-20T00:46:34.898Z,79.60
2022-11-20T00:46:44.914Z,75.40
2022-11-20T00:46:54.977Z,75.20
2022-11-20T00:47:04.903Z,74.00
2022-11-20T00:47:14.902Z,71.60
2022-11-20T00:47:24.910Z,67.50
2022-11-20T00:47:34.908Z,63.60
2022-11-20T00:47:44.891Z,64.20
2022-11-20T00:47:54.880Z,65.30
2022-11-20T00:48:04.882Z,62.30
2022-11-20T00:48:14.931Z,73.00
2022-11-20T00:48:24.877Z,72.80
2022-11-20T00:48:35.018Z,73.90
2022-11-20T00:48:44.942Z,71.40
2022-11-20T00:48:54.944Z,71.60
2022-11-20T00:49:04.915Z,78.20
2022-11-20T00:49:14.872Z,78.60
2022-11-20T00:49:24.880Z,75.20
2022-11-20T00:49:34.963Z,64.70
2022-11-20T00:49:44.954Z,62.00
2022-11-20T00:49:55.771Z,66.70
2022-11-20T00:50:04.923Z,73.00
2022-11-20T00:50:14.874Z,64.70
2022-11-20T00:50:24.934Z,60.50
2022-11-20T00:50:34.884Z,63.80
2022-11-20T00:50:44.904Z,71.30
2022-11-20T00:50:54.880Z,74.20
2022-11-20T00:51:04.872Z,70.60
2022-11-20T00:51:14.960Z,77.00
2022-11-20T00:51:24.871Z,72.20
2022-11-20T00:51:34.873Z,73.10
2022-11-20T00:51:45.765Z,57.50
2022-11-20T00:51:55.009Z,59.20
2022-11-20T00:52:04.951Z,57.30
2022-11-20T00:52:15.753Z,60.10
2022-11-20T00:52:24.890Z,62.80
2022-11-20T00:52:34.859Z,61.60
2022-11-20T00:52:44.871Z,63.10
2022-11-20T00:52:54.898Z,61.50
2022-11-20T00:53:04.884Z,67.80
2022-11-20T00:53:14.979Z,68.20
2022-11-20T00:53:24.967Z,70.70
2022-11-20T00:53:34.861Z,65.30
2022-11-20T00:53:45.762Z,64.20
2022-11-20T00:53:54.989Z,63.60
2022-11-20T00:54:04.863Z,66.20
2022-11-20T00:54:14.861Z,71.70
2022-11-20T00:54:24.893Z,67.70
2022-11-20T00:54:34.866Z,68.70
2022-11-20T00:54:44.869Z,69.90
2022-11-20T00:54:54.898Z,78.00
2022-11-20T00:55:04.864Z,81.50
2022-11-20T00:55:14.867Z,71.70
2022-11-20T00:55:24.870Z,70.20
2022-11-20T00:55:34.863Z,67.80
2022-11-20T00:55:45.785Z,67.90
2022-11-20T00:55:54.974Z,53.10
2022-11-20T00:56:04.854Z,47.50
2022-11-20T00:56:14.860Z,51.80
2022-11-20T00:56:24.843Z,62.70
2022-11-20T00:56:34.863Z,62.20
2022-11-20T00:56:44.860Z,61.60
2022-11-20T00:56:54.845Z,52.40
2022-11-20T00:57:04.984Z,60.50
2022-11-20T00:57:14.903Z,63.00
2022-11-20T00:57:24.848Z,58.90
2022-11-20T00:57:34.849Z,51.70
2022-11-20T00:57:44.882Z,54.70
2022-11-20T00:57:54.869Z,56.40
2022-11-20T00:58:04.998Z,53.10
2022-11-20T00:58:14.840Z,50.20
2022-11-20T00:58:24.845Z,56.60
2022-11-20T00:58:34.854Z,53.10
2022-11-20T00:58:44.840Z,52.00
2022-11-20T00:58:54.842Z,50.90
2022-11-20T00:59:04.884Z,58.10
2022-11-20T00:59:15.762Z,63.50
2022-11-20T00:59:24.847Z,62.60
2022-11-20T00:59:34.869Z,57.30
2022-11-20T00:59:44.849Z,49.60
2022-11-20T00:59:55.935Z,42.40
2022-11-20T01:00:04.975Z,43.90
2022-11-20T01:00:14.830Z,44.10
2022-11-20T01:00:25.975Z,52.70
2022-11-20T01:00:34.854Z,47.20
2022-11-20T01:00:44.884Z,48.30
2022-11-20T01:00:54.878Z,45.80
2022-11-20T01:01:04.924Z,54.50
2022-11-20T01:01:14.876Z,53.10
2022-11-20T01:01:24.953Z,51.90
2022-11-20T01:01:34.934Z,53.80
2022-11-20T01:01:44.833Z,57.20
2022-11-20T01:01:57.856Z,58.50
2022-11-20T01:02:05.788Z,49.10
2022-11-20T01:02:15.751Z,44.20
2022-11-20T01:02:24.875Z,43.30
2022-11-20T01:02:34.830Z,48.20
2022-11-20T01:02:44.842Z,48.30
2022-11-20T01:02:54.847Z,44.40
2022-11-20T01:03:04.839Z,43.60
2022-11-20T01:03:14.843Z,45.20
2022-11-20T01:03:27.198Z,51.10
2022-11-20T01:03:34.828Z,45.30
2022-11-20T01:03:44.855Z,44.60
2022-11-20T01:03:54.820Z,45.20
2022-11-20T01:04:05.841Z,48.90
2022-11-20T01:04:14.956Z,49.50
2022-11-20T01:04:25.007Z,44.60
2022-11-20T01:04:34.830Z,43.60
2022-11-20T01:04:44.825Z,48.80
2022-11-20T01:04:54.886Z,51.30
2022-11-20T01:05:04.827Z,56.40
2022-11-20T01:05:14.848Z,58.50
2022-11-20T01:05:24.828Z,64.80
2022-11-20T01:05:34.826Z,62.80
2022-11-20T01:05:44.824Z,59.40
2022-11-20T01:05:54.834Z,57.20
2022-11-20T01:06:05.820Z,57.50
2022-11-20T01:06:15.750Z,51.40
2022-11-20T01:06:24.828Z,45.10
2022-11-20T01:06:34.833Z,45.50
2022-11-20T01:06:44.867Z,45.60
2022-11-20T01:06:54.829Z,47.90
2022-11-20T01:07:04.870Z,45.20
2022-11-20T01:07:14.882Z,44.10
2022-11-20T01:07:24.837Z,43.50
2022-11-20T01:07:35.053Z,43.50
2022-11-20T01:07:44.838Z,45.20
2022-11-20T01:07:54.824Z,52.10
2022-11-20T01:08:04.840Z,58.50
2022-11-20T01:08:15.809Z,56.90
2022-11-20T01:08:24.872Z,45.10
2022-11-20T01:08:34.850Z,43.80
2022-11-20T01:08:44.881Z,44.00
2022-11-20T01:08:54.814Z,43.40
2022-11-20T01:09:04.882Z,44.20
2022-11-20T01:09:14.811Z,53.60
2022-11-20T01:09:24.883Z,62.50
2022-11-20T01:09:34.828Z,65.90
2022-11-20T01:09:44.817Z,60.60
2022-11-20T01:09:54.823Z,55.60
2022-11-20T01:10:04.843Z,47.10
2022-11-20T01:10:14.799Z,42.80
2022-11-20T01:10:24.887Z,41.70
2022-11-20T01:10:34.796Z,44.10
2022-11-20T01:10:44.814Z,50.30
2022-11-20T01:10:54.822Z,53.60
2022-11-20T01:11:04.826Z,59.50
2022-11-20T01:11:14.797Z,57.90
2022-11-20T01:11:24.811Z,60.40
2022-11-20T01:11:34.806Z,57.50
2022-11-20T01:11:45.752Z,59.60
2022-11-20T01:11:54.831Z,59.90
2022-11-20T01:12:04.789Z,62.20
2022-11-20T01:12:14.802Z,70.00
2022-11-20T01:12:25.791Z,64.10
2022-11-20T01:12:34.792Z,66.70
2022-11-20T01:12:45.116Z,50.80
2022-11-20T01:12:54.845Z,47.40
2022-11-20T01:13:04.807Z,46.00
2022-11-20T01:13:14.824Z,45.90
2022-11-20T01:13:25.860Z,53.90
2022-11-20T01:13:34.786Z,57.20
2022-11-20T01:13:44.846Z,63.90
2022-11-20T01:13:54.887Z,66.10
2022-11-20T01:14:05.801Z,57.60
2022-11-20T01:14:14.793Z,55.60
2022-11-20T01:14:24.841Z,52.50
2022-11-20T01:14:34.846Z,62.90
2022-11-20T01:14:45.764Z,60.90
2022-11-20T01:14:54.806Z,50.40
2022-11-20T01:15:04.809Z,44.80
2022-11-20T01:15:14.798Z,45.10
2022-11-20T01:15:24.782Z,58.40
2022-11-20T01:15:34.797Z,68.50
2022-11-20T01:15:44.794Z,70.10
2022-11-20T01:15:54.799Z,62.60
2022-11-20T01:16:04.826Z,56.20
2022-11-20T01:16:14.825Z,51.80
2022-11-20T01:16:24.802Z,61.70
2022-11-20T01:16:35.822Z,62.60
2022-11-20T01:16:44.796Z,65.90
2022-11-20T01:16:54.800Z,53.80
2022-11-20T01:17:04.806Z,56.40
2022-11-20T01:17:15.760Z,58.90
2022-11-20T01:17:24.787Z,61.90
2022-11-20T01:17:34.812Z,60.20
2022-11-20T01:17:44.845Z,52.30
2022-11-20T01:17:54.882Z,50.00
2022-11-20T01:18:04.778Z,53.20
2022-11-20T01:18:14.837Z,51.60
2022-11-20T01:18:24.817Z,54.90
2022-11-20T01:18:34.850Z,49.90
2022-11-20T01:18:44.884Z,53.70
2022-11-20T01:18:54.802Z,51.40
2022-11-20T01:19:04.794Z,51.60
2022-11-20T01:19:17.708Z,59.50
2022-11-20T01:19:25.388Z,65.80
2022-11-20T01:19:34.847Z,73.50
2022-11-20T01:19:44.839Z,62.70
2022-11-20T01:19:54.868Z,54.00
2022-11-20T01:20:04.796Z,53.40
2022-11-20T01:20:14.762Z,63.20
2022-11-20T01:20:27.762Z,69.30
2022-11-20T01:20:34.859Z,63.90
2022-11-20T01:20:45.790Z,67.50
2022-11-20T01:20:54.766Z,61.20
2022-11-20T01:21:04.765Z,59.10
2022-11-20T01:21:14.864Z,56.20
2022-11-20T01:21:24.795Z,51.30
2022-11-20T01:21:34.770Z,58.80
2022-11-20T01:21:44.753Z,49.80
2022-11-20T01:21:54.778Z,61.90
2022-11-20T01:22:04.763Z,62.20
2022-11-20T01:22:14.763Z,66.20
2022-11-20T01:22:24.770Z,63.40
2022-11-20T01:22:34.753Z,60.60
2022-11-20T01:22:44.791Z,67.80
2022-11-20T01:22:55.049Z,69.30
2022-11-20T01:23:04.955Z,67.10
2022-11-20T01:23:15.396Z,66.90
2022-11-20T01:23:24.915Z,66.80
2022-11-20T01:23:34.752Z,70.90
2022-11-20T01:23:44.800Z,60.80
2022-11-20T01:23:54.749Z,57.80
2022-11-20T01:24:04.921Z,50.40
2022-11-20T01:24:14.754Z,66.40
2022-11-20T01:24:24.807Z,69.50
2022-11-20T01:24:34.750Z,79.10
2022-11-20T01:24:44.765Z,73.50
2022-11-20T01:24:54.933Z,68.90
2022-11-20T01:25:04.757Z,64.90
2022-11-20T01:25:14.770Z,58.90
2022-11-20T01:25:25.255Z,63.70
2022-11-20T01:25:34.753Z,62.30
2022-11-20T01:25:44.756Z,59.60
2022-11-20T01:25:54.739Z,59.70
2022-11-20T01:26:04.745Z,63.70
2022-11-20T01:26:14.756Z,64.60
2022-11-20T01:26:24.741Z,65.20
2022-11-20T01:26:34.770Z,68.40
2022-11-20T01:26:45.011Z,74.30
2022-11-20T01:26:55.251Z,70.00
2022-11-20T01:27:04.911Z,68.60
2022-11-20T01:27:14.934Z,67.20
2022-11-20T01:27:24.735Z,64.50
2022-11-20T01:27:34.745Z,61.60
2022-11-20T01:27:45.252Z,64.40
2022-11-20T01:27:54.734Z,72.40
2022-11-20T01:28:04.741Z,71.20
2022-11-20T01:28:14.822Z,74.90
2022-11-20T01:28:24.747Z,76.90
2022-11-20T01:28:34.737Z,86.00
2022-11-20T01:28:44.747Z,77.60
2022-11-20T01:28:54.801Z,73.00
2022-11-20T01:29:05.259Z,67.40
2022-11-20T01:29:14.735Z,67.60
2022-11-20T01:29:25.100Z,61.20
2022-11-20T01:29:34.759Z,58.20
2022-11-20T01:29:44.726Z,57.90
2022-11-20T01:29:59.763Z,62.80
2022-11-20T01:30:04.750Z,69.40
2022-11-20T01:30:14.732Z,76.10
2022-11-20T01:30:24.735Z,76.50
2022-11-20T01:30:34.737Z,70.60
2022-11-20T01:30:44.729Z,66.20
2022-11-20T01:30:54.756Z,62.20
2022-11-20T01:31:04.759Z,67.30
2022-11-20T01:31:14.862Z,72.30
2022-11-20T01:31:24.747Z,80.60
2022-11-20T01:31:34.722Z,82.30
2022-11-20T01:31:44.734Z,72.10
2022-11-20T01:31:54.744Z,62.40
2022-11-20T01:32:04.723Z,54.10
2022-11-20T01:32:14.924Z,55.60
2022-11-20T01:32:24.730Z,60.70
2022-11-20T01:32:34.716Z,61.60
2022-11-20T01:32:44.716Z,67.00
2022-11-20T01:32:54.799Z,59.30
2022-11-20T01:33:04.714Z,61.70
2022-11-20T01:33:15.268Z,55.10
2022-11-20T01:33:25.753Z,62.70
2022-11-20T01:33:34.714Z,59.10
2022-11-20T01:33:44.722Z,76.00
2022-11-20T01:33:54.713Z,83.30
2022-11-20T01:34:04.721Z,83.20
2022-11-20T01:34:14.756Z,71.10
2022-11-20T01:34:24.713Z,64.80
2022-11-20T01:34:34.728Z,68.80
2022-11-20T01:34:44.729Z,75.90
2022-11-20T01:34:54.736Z,68.40
2022-11-20T01:35:04.712Z,63.10
2022-11-20T01:35:15.259Z,59.50
2022-11-20T01:35:24.708Z,71.10
2022-11-20T01:35:34.721Z,73.00
2022-11-20T01:35:44.731Z,74.90
2022-11-20T01:35:54.713Z,71.60
2022-11-20T01:36:04.733Z,77.80
2022-11-20T01:36:14.727Z,74.00
2022-11-20T01:36:24.703Z,69.70
2022-11-20T01:36:34.706Z,66.10
2022-11-20T01:36:44.707Z,66.70
2022-11-20T01:36:54.721Z,62.40
2022-11-20T01:37:04.730Z,67.80
2022-11-20T01:37:14.730Z,67.60
2022-11-20T01:37:25.278Z,75.90
2022-11-20T01:37:34.712Z,62.20
2022-11-20T01:37:44.733Z,55.80
2022-11-20T01:37:54.712Z,57.10
2022-11-20T01:38:04.766Z,61.80
2022-11-20T01:38:14.697Z,71.00
2022-11-20T01:38:24.707Z,68.60
2022-11-20T01:38:34.768Z,76.70
2022-11-20T01:38:44.696Z,73.40
2022-11-20T01:38:54.725Z,77.00
2022-11-20T01:39:04.706Z,75.20
2022-11-20T01:39:14.727Z,80.00
2022-11-20T01:39:25.531Z,75.10
2022-11-20T01:39:34.847Z,72.20
2022-11-20T01:39:44.691Z,70.10
2022-11-20T01:39:54.694Z,71.20
2022-11-20T01:40:04.697Z,72.40
2022-11-20T01:40:14.713Z,75.10
2022-11-20T01:40:24.727Z,76.40
2022-11-20T01:40:34.687Z,74.30
2022-11-20T01:40:44.692Z,70.70
2022-11-20T01:40:54.719Z,69.80
2022-11-20T01:41:04.693Z,67.90
2022-11-20T01:41:14.699Z,69.50
2022-11-20T01:41:25.267Z,66.10
2022-11-20T01:41:34.744Z,72.20
2022-11-20T01:41:44.686Z,67.70
2022-11-20T01:41:55.055Z,70.40
2022-11-20T01:42:09.600Z,63.80
2022-11-20T01:42:14.686Z,68.90
2022-11-20T01:42:24.718Z,65.70
2022-11-20T01:42:34.682Z,68.30
2022-11-20T01:42:44.696Z,64.00
2022-11-20T01:42:54.697Z,67.60
2022-11-20T01:43:04.678Z,71.30
2022-11-20T01:43:14.704Z,66.60
2022-11-20T01:43:24.698Z,61.70
2022-11-20T01:43:34.747Z,56.90
2022-11-20T01:43:44.892Z,58.50
2022-11-20T01:43:54.690Z,61.00
2022-11-20T01:44:04.678Z,64.20
2022-11-20T01:44:14.682Z,66.10
2022-11-20T01:44:24.676Z,67.80
2022-11-20T01:44:34.693Z,66.90
2022-11-20T01:44:44.825Z,64.20
2022-11-20T01:44:54.756Z,60.90
2022-11-20T01:45:04.695Z,58.30
2022-11-20T01:45:14.695Z,68.80
2022-11-20T01:45:24.679Z,71.20
2022-11-20T01:45:34.702Z,69.40
2022-11-20T01:45:44.947Z,58.90
2022-11-20T01:45:54.667Z,63.60
2022-11-20T01:46:04.692Z,68.30
2022-11-20T01:46:14.671Z,72.60
2022-11-20T01:46:24.673Z,64.40
2022-11-20T01:46:34.693Z,60.30
2022-11-20T01:46:44.677Z,56.10
2022-11-20T01:46:54.677Z,60.00
2022-11-20T01:47:04.692Z,58.90
2022-11-20T01:47:14.679Z,58.70
2022-11-20T01:47:24.695Z,53.70
2022-11-20T01:47:37.263Z,53.40
2022-11-20T01:47:45.278Z,56.00
2022-11-20T01:47:54.667Z,53.80
2022-11-20T01:48:04.692Z,57.00
2022-11-20T01:48:14.671Z,57.50
2022-11-20T01:48:24.678Z,59.30
2022-11-20T01:48:34.660Z,53.70
2022-11-20T01:48:44.670Z,48.00
2022-11-20T01:48:54.832Z,55.60
2022-11-20T01:49:04.668Z,66.00
2022-11-20T01:49:14.663Z,73.70
2022-11-20T01:49:25.277Z,67.40
2022-11-20T01:49:34.669Z,68.60
2022-11-20T01:49:45.270Z,61.60
2022-11-20T01:49:54.767Z,65.70
2022-11-20T01:50:04.665Z,63.20
2022-11-20T01:50:14.652Z,61.80
2022-11-20T01:50:24.670Z,55.40
2022-11-20T01:50:34.665Z,51.60
2022-11-20T01:50:44.655Z,55.90
2022-11-20T01:50:54.665Z,53.40
2022-11-20T01:51:04.653Z,57.50
2022-11-20T01:51:14.747Z,60.70
2022-11-20T01:51:24.673Z,65.10
2022-11-20T01:51:34.655Z,57.10
2022-11-20T01:51:45.265Z,53.90
2022-11-20T01:51:55.302Z,54.80
2022-11-20T01:52:04.843Z,53.80
2022-11-20T01:52:14.646Z,44.80
2022-11-20T01:52:24.655Z,53.90
2022-11-20T01:52:34.651Z,51.60
2022-11-20T01:52:44.653Z,57.60
2022-11-20T01:52:54.757Z,43.60
2022-11-20T01:53:04.647Z,55.30
2022-11-20T01:53:14.661Z,50.50
2022-11-20T01:53:24.668Z,49.30
2022-11-20T01:53:34.640Z,44.80
2022-11-20T01:53:44.676Z,49.00
2022-11-20T01:53:54.657Z,52.10
2022-11-20T01:54:04.776Z,58.30
2022-11-20T01:54:14.657Z,53.50
2022-11-20T01:54:24.644Z,59.40
2022-11-20T01:54:34.638Z,61.10
2022-11-20T01:54:44.655Z,61.50
2022-11-20T01:54:54.664Z,61.30
2022-11-20T01:55:04.641Z,67.30
2022-11-20T01:55:14.639Z,68.40
2022-11-20T01:55:24.735Z,65.90
2022-11-20T01:55:34.637Z,55.10
2022-11-20T01:55:44.639Z,54.60
2022-11-20T01:55:54.635Z,49.40
2022-11-20T01:56:04.757Z,53.00
2022-11-20T01:56:14.642Z,47.00
2022-11-20T01:56:24.633Z,43.90
2022-11-20T01:56:34.651Z,46.20
2022-11-20T01:56:44.636Z,49.00
2022-11-20T01:56:54.632Z,48.80
2022-11-20T01:57:04.641Z,43.40
2022-11-20T01:57:14.650Z,43.60
2022-11-20T01:57:24.627Z,42.50
2022-11-20T01:57:34.669Z,43.50
2022-11-20T01:57:45.306Z,51.70
2022-11-20T01:57:55.275Z,51.50
2022-11-20T01:58:05.308Z,60.50
2022-11-20T01:58:14.758Z,56.00
2022-11-20T01:58:24.627Z,49.60
2022-11-20T01:58:34.625Z,42.50
2022-11-20T01:58:44.629Z,42.30
2022-11-20T01:58:54.634Z,43.10
2022-11-20T01:59:04.639Z,43.80
2022-11-20T01:59:14.701Z,43.80
2022-11-20T01:59:24.635Z,44.10
2022-11-20T01:59:34.621Z,46.70
2022-11-20T01:59:44.636Z,54.20
2022-11-20T01:59:54.637Z,51.70
2022-11-20T02:00:04.629Z,48.20
2022-11-20T02:00:14.728Z,47.60
2022-11-20T02:00:24.633Z,56.90
2022-11-20T02:00:34.628Z,59.20
2022-11-20T02:00:44.686Z,57.40
2022-11-20T02:00:54.681Z,46.70
2022-11-20T02:01:04.688Z,45.80
2022-11-20T02:01:14.654Z,45.60
2022-11-20T02:01:25.304Z,44.90
2022-11-20T02:01:34.749Z,41.80
2022-11-20T02:01:44.628Z,41.60
2022-11-20T02:01:54.614Z,44.40
2022-11-20T02:02:04.624Z,56.50
2022-11-20T02:02:15.270Z,50.50
2022-11-20T02:02:24.623Z,44.70
2022-11-20T02:02:34.621Z,43.20
2022-11-20T02:02:44.611Z,43.30
2022-11-20T02:02:54.609Z,43.80
2022-11-20T02:03:04.641Z,45.10
2022-11-20T02:03:14.624Z,45.90
2022-11-20T02:03:24.616Z,45.70
2022-11-20T02:03:34.611Z,46.10
2022-11-20T02:03:44.667Z,44.90
2022-11-20T02:03:54.741Z,46.50
2022-11-20T02:04:04.618Z,45.70
2022-11-20T02:04:14.633Z,49.40
2022-11-20T02:04:25.361Z,44.80
2022-11-20T02:04:34.617Z,46.30
2022-11-20T02:04:44.605Z,48.60
2022-11-20T02:04:54.609Z,58.40
2022-11-20T02:05:04.606Z,51.30
2022-11-20T02:05:14.640Z,45.00
2022-11-20T02:05:24.606Z,50.10
2022-11-20T02:05:34.611Z,51.70
2022-11-20T02:05:44.608Z,53.50
2022-11-20T02:05:54.598Z,45.50
2022-11-20T02:06:05.311Z,50.50
2022-11-20T02:06:14.645Z,50.80
2022-11-20T02:06:24.689Z,47.80
2022-11-20T02:06:34.604Z,45.70
2022-11-20T02:06:44.603Z,45.10
2022-11-20T02:06:54.601Z,45.80
2022-11-20T02:07:04.706Z,45.00
2022-11-20T02:07:14.648Z,46.80
2022-11-20T02:07:24.723Z,51.50
2022-11-20T02:07:34.666Z,51.80
2022-11-20T02:07:44.591Z,53.60
2022-11-20T02:07:54.747Z,54.30
2022-11-20T02:08:04.594Z,60.10
2022-11-20T02:08:14.589Z,58.80
2022-11-20T02:08:25.279Z,52.80
2022-11-20T02:08:34.589Z,47.90
2022-11-20T02:08:45.269Z,48.00